createdAt,value
2023-01-22T00:00:32.371Z,-0.30
2023-01-22T00:03:00.721Z,-0.30
2023-01-22T00:05:28.759Z,-0.30
2023-01-22T00:07:56.981Z,-0.30
2023-01-22T00:10:25.578Z,-0.30
2023-01-22T00:12:53.834Z,-0.30
2023-01-22T00:15:22.127Z,-0.30
2023-01-22T00:17:51.719Z,-0.30
2023-01-22T00:20:20.228Z,-0.30
2023-01-22T00:22:48.805Z,-0.30
2023-01-22T00:25:17.258Z,-0.30
2023-01-22T00:27:45.298Z,-0.20
2023-01-22T00:30:13.922Z,-0.30
2023-01-22T00:32:41.980Z,-0.30
2023-01-22T00:35:13.294Z,-0.30
2023-01-22T00:37:41.428Z,-0.30
2023-01-22T00:40:10.521Z,-0.30
2023-01-22T00:42:39.429Z,-0.30
2023-01-22T00:45:08.278Z,-0.30
2023-01-22T00:47:36.894Z,-0.30
2023-01-22T00:50:05.174Z,-0.30
2023-01-22T00:52:35.019Z,-0.30
2023-01-22T00:55:03.092Z,-0.30
2023-01-22T00:57:31.592Z,-0.30
2023-01-22T01:00:00.697Z,-0.30
2023-01-22T01:02:31.764Z,-0.30
2023-01-22T01:05:01.859Z,-0.30
2023-01-22T01:07:31.204Z,-0.30
2023-01-22T01:10:00.578Z,-0.30
2023-01-22T01:12:29.772Z,-0.20
2023-01-22T01:14:58.100Z,-0.20
2023-01-22T01:17:26.165Z,-0.30
2023-01-22T01:19:54.564Z,-0.30
2023-01-22T01:22:22.643Z,-0.20
2023-01-22T01:24:51.237Z,-0.20
2023-01-22T01:27:20.617Z,-0.20
2023-01-22T01:29:49.262Z,-0.20
2023-01-22T01:32:17.348Z,-0.20
2023-01-22T01:34:47.883Z,-0.20
2023-01-22T01:37:16.505Z,-0.20
2023-01-22T01:39:44.547Z,-0.20
2023-01-22T01:42:12.848Z,-0.20
2023-01-22T01:44:43.453Z,-0.20
2023-01-22T01:47:21.174Z,-0.20
2023-01-22T01:49:51.537Z,-0.10
2023-01-22T01:52:20.597Z,-0.10
2023-01-22T01:54:51.652Z,-0.10
2023-01-22T01:57:23.531Z,-0.10
2023-01-22T01:59:53.464Z,-0.10
2023-01-22T02:02:25.213Z,-0.20
2023-01-22T02:04:55.248Z,-0.20
2023-01-22T02:07:23.682Z,-0.20
2023-01-22T02:09:51.790Z,-0.30
2023-01-22T02:12:20.188Z,-0.30
2023-01-22T02:14:49.941Z,-0.30
2023-01-22T02:17:35.578Z,-0.30
2023-01-22T02:20:03.812Z,-0.30
2023-01-22T02:22:34.441Z,-0.30
2023-01-22T02:25:03.099Z,-0.30
2023-01-22T02:27:31.678Z,-0.20
2023-01-22T02:30:00.240Z,-0.20
2023-01-22T02:32:30.679Z,-0.20
2023-01-22T02:34:59.481Z,-0.20
2023-01-22T02:37:27.863Z,-0.20
2023-01-22T02:39:59.390Z,-0.20
2023-01-22T02:42:28.293Z,-0.10
2023-01-22T02:44:56.823Z,-0.10
2023-01-22T02:47:25.471Z,0.00
2023-01-22T02:49:54.811Z,0.00
2023-01-22T02:52:23.491Z,0.10
2023-01-22T02:54:51.595Z,0.20
2023-01-22T02:57:21.490Z,0.20
2023-01-22T02:59:50.359Z,0.30
2023-01-22T03:02:18.574Z,0.40
2023-01-22T03:04:50.378Z,0.40
2023-01-22T03:07:18.710Z,0.50
2023-01-22T03:09:48.556Z,0.50
2023-01-22T03:12:16.626Z,0.50
2023-01-22T03:15:04.424Z,0.60
2023-01-22T03:17:50.124Z,0.60
2023-01-22T03:20:36.020Z,0.60
2023-01-22T03:23:04.068Z,0.70
2023-01-22T03:25:32.383Z,0.70
2023-01-22T03:28:16.383Z,0.70
2023-01-22T03:30:50.869Z,0.80
2023-01-22T03:33:19.014Z,0.80
2023-01-22T03:35:51.753Z,0.80
2023-01-22T03:38:21.825Z,0.80
2023-01-22T03:40:50.112Z,0.90
2023-01-22T03:43:18.787Z,0.90
2023-01-22T03:45:47.328Z,0.90
2023-01-22T03:48:21.937Z,0.90
2023-01-22T03:50:50.192Z,0.90
2023-01-22T03:53:19.082Z,0.90
2023-01-22T03:55:57.283Z,1.00
2023-01-22T03:58:26.128Z,1.00
2023-01-22T04:00:57.651Z,1.00
2023-01-22T04:03:28.567Z,1.00
2023-01-22T04:06:00.141Z,1.00
2023-01-22T04:08:29.707Z,1.00
2023-01-22T04:10:58.514Z,1.10
2023-01-22T04:13:27.290Z,1.10
2023-01-22T04:15:56.597Z,1.10
2023-01-22T04:18:45.038Z,1.10
2023-01-22T04:21:26.641Z,1.10
2023-01-22T04:23:57.512Z,1.10
2023-01-22T04:26:26.012Z,1.10
2023-01-22T04:28:56.086Z,1.10
2023-01-22T04:31:26.130Z,1.10
2023-01-22T04:34:14.073Z,1.10
2023-01-22T04:36:47.151Z,1.10
2023-01-22T04:39:15.336Z,1.10
2023-01-22T04:41:43.699Z,1.00
2023-01-22T04:44:12.080Z,1.00
2023-01-22T04:46:42.724Z,0.90
2023-01-22T04:49:14.993Z,0.90
2023-01-22T04:51:44.858Z,0.90
2023-01-22T04:54:13.554Z,1.00
2023-01-22T04:56:42.291Z,1.00
2023-01-22T04:59:11.588Z,0.90
2023-01-22T05:01:40.036Z,0.90
2023-01-22T05:04:08.544Z,1.00
2023-01-22T05:06:38.015Z,1.00
2023-01-22T05:09:06.505Z,1.00
2023-01-22T05:11:51.055Z,1.10
2023-01-22T05:14:19.703Z,1.10
2023-01-22T05:16:50.153Z,1.10
2023-01-22T05:19:18.762Z,1.00
2023-01-22T05:21:48.871Z,1.00
2023-01-22T05:24:19.459Z,1.00
2023-01-22T05:26:47.944Z,1.00
2023-01-22T05:29:25.543Z,1.10
2023-01-22T05:32:15.998Z,1.00
2023-01-22T05:34:50.774Z,1.10
2023-01-22T05:37:20.482Z,1.00
2023-01-22T05:39:48.748Z,1.00
2023-01-22T05:42:19.357Z,1.00
2023-01-22T05:44:49.749Z,1.00
2023-01-22T05:47:21.854Z,0.90
2023-01-22T05:50:17.159Z,0.90
2023-01-22T05:52:48.736Z,0.80
2023-01-22T05:55:17.734Z,0.80
2023-01-22T05:57:47.197Z,0.80
2023-01-22T06:00:17.995Z,0.80
2023-01-22T06:02:55.621Z,0.80
2023-01-22T06:05:23.859Z,0.80
2023-01-22T06:08:01.137Z,0.70
2023-01-22T06:10:36.757Z,0.70
2023-01-22T06:13:05.994Z,0.70
2023-01-22T06:15:34.814Z,0.70
2023-01-22T06:18:16.351Z,0.80
2023-01-22T06:20:44.497Z,0.80
2023-01-22T06:23:14.312Z,0.90
2023-01-22T06:25:43.032Z,0.90
2023-01-22T06:28:17.279Z,0.90
2023-01-22T06:30:46.778Z,0.90
2023-01-22T06:33:15.408Z,0.80
2023-01-22T06:35:44.447Z,0.80
2023-01-22T06:38:14.113Z,0.80
2023-01-22T06:40:44.130Z,0.80
2023-01-22T06:43:12.423Z,0.80
2023-01-22T06:45:40.518Z,0.90
2023-01-22T06:48:11.137Z,0.90
2023-01-22T06:50:39.415Z,0.90
2023-01-22T06:53:07.943Z,0.90
2023-01-22T06:55:37.910Z,1.00
2023-01-22T06:58:06.320Z,1.00
2023-01-22T07:00:34.363Z,1.00
2023-01-22T07:03:06.060Z,1.00
2023-01-22T07:05:34.349Z,1.00
2023-01-22T07:08:02.716Z,1.00
2023-01-22T07:10:31.269Z,1.00
2023-01-22T07:13:01.545Z,0.90
2023-01-22T07:15:30.286Z,0.90
2023-01-22T07:17:59.593Z,0.90
2023-01-22T07:20:28.063Z,1.00
2023-01-22T07:22:59.216Z,1.00
2023-01-22T07:25:28.562Z,1.00
2023-01-22T07:28:00.920Z,1.00
2023-01-22T07:30:29.537Z,0.90
2023-01-22T07:32:58.837Z,0.80
2023-01-22T07:35:27.229Z,0.60
2023-01-22T07:37:56.229Z,0.30
2023-01-22T07:40:24.973Z,0.20
2023-01-22T07:42:53.919Z,0.20
2023-01-22T07:45:24.533Z,0.30
2023-01-22T07:47:54.713Z,0.40
2023-01-22T07:50:23.093Z,0.40
2023-01-22T07:52:51.141Z,0.50
2023-01-22T07:55:19.750Z,0.50
2023-01-22T07:57:48.640Z,0.60
2023-01-22T08:00:17.338Z,0.60
2023-01-22T08:02:50.149Z,0.60
2023-01-22T08:05:18.304Z,0.70
2023-01-22T08:07:46.398Z,0.80
2023-01-22T08:10:15.433Z,0.80
2023-01-22T08:12:46.169Z,0.80
2023-01-22T08:15:15.256Z,0.80
2023-01-22T08:17:43.564Z,0.80
2023-01-22T08:20:13.462Z,0.70
2023-01-22T08:22:41.544Z,0.70
2023-01-22T08:25:10.409Z,0.60
2023-01-22T08:27:39.201Z,0.60
2023-01-22T08:30:07.873Z,0.60
2023-01-22T08:32:36.485Z,0.60
2023-01-22T08:35:04.723Z,0.60
2023-01-22T08:37:34.683Z,0.60
2023-01-22T08:40:02.991Z,0.50
2023-01-22T08:42:31.523Z,0.40
2023-01-22T08:44:59.576Z,0.50
2023-01-22T08:47:28.255Z,0.50
2023-01-22T08:49:56.399Z,0.50
2023-01-22T08:52:24.647Z,0.50
2023-01-22T08:54:54.497Z,0.60
2023-01-22T08:57:22.569Z,0.60
2023-01-22T09:00:00.682Z,0.60
2023-01-22T09:02:30.955Z,0.60
2023-01-22T09:04:59.536Z,0.60
2023-01-22T09:07:27.544Z,0.60
2023-01-22T09:09:57.366Z,0.60
2023-01-22T09:12:25.545Z,0.50
2023-01-22T09:14:53.763Z,0.50
2023-01-22T09:17:22.430Z,0.50
2023-01-22T09:19:50.482Z,0.50
2023-01-22T09:22:19.165Z,0.60
2023-01-22T09:24:47.534Z,0.60
2023-01-22T09:27:17.674Z,0.60
2023-01-22T09:29:46.052Z,0.70
2023-01-22T09:32:14.590Z,0.70
2023-01-22T09:34:42.813Z,0.80
2023-01-22T09:37:11.698Z,0.80
2023-01-22T09:39:40.348Z,0.90
2023-01-22T09:42:11.855Z,0.90
2023-01-22T09:44:43.075Z,1.00
2023-01-22T09:47:12.766Z,1.00
2023-01-22T09:49:46.674Z,1.10
2023-01-22T09:52:15.073Z,1.10
2023-01-22T09:54:44.127Z,1.20
2023-01-22T09:57:30.745Z,1.20
2023-01-22T10:00:01.798Z,1.30
2023-01-22T10:02:40.593Z,1.30
2023-01-22T10:05:16.149Z,1.20
2023-01-22T10:07:47.709Z,1.30
2023-01-22T10:10:19.608Z,1.30
2023-01-22T10:12:50.433Z,1.30
2023-01-22T10:15:21.505Z,1.40
2023-01-22T10:17:50.300Z,1.40
2023-01-22T10:20:21.107Z,1.40
2023-01-22T10:22:50.068Z,1.30
2023-01-22T10:25:18.492Z,1.40
2023-01-22T10:27:47.389Z,1.40
2023-01-22T10:30:22.306Z,1.40
2023-01-22T10:33:00.232Z,1.50
2023-01-22T10:35:30.982Z,1.60
2023-01-22T10:38:00.440Z,1.60
2023-01-22T10:40:31.192Z,1.60
2023-01-22T10:43:04.455Z,1.60
2023-01-22T10:45:34.403Z,1.60
2023-01-22T10:48:14.292Z,1.60
2023-01-22T10:50:46.516Z,1.70
2023-01-22T10:53:18.185Z,1.70
2023-01-22T10:55:52.891Z,1.70
2023-01-22T10:58:22.321Z,1.70
2023-01-22T11:00:59.853Z,1.70
2023-01-22T11:03:33.283Z,1.60
2023-01-22T11:06:03.939Z,1.60
2023-01-22T11:08:39.650Z,1.50
2023-01-22T11:11:09.837Z,1.60
2023-01-22T11:13:43.951Z,1.60
2023-01-22T11:16:16.516Z,1.70
2023-01-22T11:18:46.800Z,1.70
2023-01-22T11:21:15.631Z,1.70
2023-01-22T11:23:48.839Z,1.60
2023-01-22T11:26:20.073Z,1.60
2023-01-22T11:28:51.459Z,1.50
2023-01-22T11:31:30.818Z,1.40
2023-01-22T11:34:12.953Z,1.50
2023-01-22T11:36:44.806Z,1.50
2023-01-22T11:39:16.416Z,1.40
2023-01-22T11:41:50.313Z,1.30
2023-01-22T11:44:30.137Z,1.20
2023-01-22T11:47:07.364Z,1.20
2023-01-22T11:49:41.622Z,1.30
2023-01-22T11:52:15.809Z,1.30
2023-01-22T11:54:50.450Z,1.40
2023-01-22T11:57:21.362Z,1.50
2023-01-22T12:00:02.110Z,1.50
2023-01-22T12:02:48.173Z,1.50
2023-01-22T12:05:24.455Z,1.60
2023-01-22T12:08:03.158Z,1.60
2023-01-22T12:10:41.788Z,1.60
2023-01-22T12:13:18.654Z,1.60
2023-01-22T12:15:52.484Z,1.50
2023-01-22T12:18:34.047Z,1.40
2023-01-22T12:21:08.246Z,1.30
2023-01-22T12:23:40.441Z,1.30
2023-01-22T12:26:12.734Z,1.30
2023-01-22T12:28:42.697Z,1.20
2023-01-22T12:31:14.429Z,1.20
2023-01-22T12:33:44.499Z,1.10
2023-01-22T12:36:14.264Z,1.10
2023-01-22T12:38:43.866Z,1.00
2023-01-22T12:41:31.554Z,0.90
2023-01-22T12:44:06.307Z,0.80
2023-01-22T12:46:44.105Z,0.80
2023-01-22T12:49:16.674Z,0.80
2023-01-22T12:51:46.561Z,0.80
2023-01-22T12:54:19.651Z,0.80
2023-01-22T12:56:49.240Z,0.90
2023-01-22T12:59:41.512Z,0.90
2023-01-22T13:02:22.773Z,0.90
2023-01-22T13:04:52.960Z,1.00
2023-01-22T13:07:23.137Z,1.10
2023-01-22T13:10:01.473Z,1.10
2023-01-22T13:12:39.349Z,1.20
2023-01-22T13:15:17.649Z,1.20
2023-01-22T13:18:05.917Z,1.10
2023-01-22T13:20:37.425Z,1.20
2023-01-22T13:23:06.461Z,1.20
2023-01-22T13:25:35.336Z,1.40
2023-01-22T13:28:03.791Z,1.50
2023-01-22T13:30:32.681Z,1.50
2023-01-22T13:33:09.463Z,1.50
2023-01-22T13:35:46.158Z,1.30
2023-01-22T13:38:22.050Z,1.30
2023-01-22T13:40:51.827Z,1.20
2023-01-22T13:43:20.721Z,1.20
2023-01-22T13:45:49.598Z,1.30
2023-01-22T13:48:19.027Z,1.20
2023-01-22T13:50:53.683Z,1.20
2023-01-22T13:53:30.055Z,1.10
2023-01-22T13:55:59.962Z,1.10
2023-01-22T13:58:46.465Z,1.20
2023-01-22T14:01:29.347Z,1.30
2023-01-22T14:04:03.284Z,1.40
2023-01-22T14:06:43.276Z,1.60
2023-01-22T14:09:11.424Z,1.60
2023-01-22T14:11:40.196Z,1.50
2023-01-22T14:14:17.910Z,1.40
2023-01-22T14:16:47.012Z,1.40
2023-01-22T14:19:15.396Z,1.40
2023-01-22T14:21:44.834Z,1.40
2023-01-22T14:24:12.982Z,1.30
2023-01-22T14:26:41.355Z,1.30
2023-01-22T14:29:10.031Z,1.30
2023-01-22T14:31:38.305Z,1.30
2023-01-22T14:34:07.263Z,1.30
2023-01-22T14:36:35.666Z,1.30
2023-01-22T14:39:06.795Z,1.40
2023-01-22T14:41:36.242Z,1.50
2023-01-22T14:44:04.910Z,1.50
2023-01-22T14:46:33.616Z,1.50
2023-01-22T14:49:02.088Z,1.50
2023-01-22T14:51:30.686Z,1.50
2023-01-22T14:53:59.391Z,1.50
2023-01-22T14:56:29.091Z,1.60
2023-01-22T14:58:57.127Z,1.60
2023-01-22T15:01:29.202Z,1.60
2023-01-22T15:03:57.484Z,1.60
2023-01-22T15:06:25.776Z,1.50
2023-01-22T15:08:54.141Z,1.50
2023-01-22T15:11:22.221Z,1.50
2023-01-22T15:13:53.049Z,1.50
2023-01-22T15:16:21.216Z,1.50
2023-01-22T15:18:49.778Z,1.50
2023-01-22T15:21:17.912Z,1.50
2023-01-22T15:23:46.502Z,1.50
2023-01-22T15:26:23.845Z,1.50
2023-01-22T15:28:53.808Z,1.40
2023-01-22T15:31:22.206Z,1.40
2023-01-22T15:33:50.683Z,1.40
2023-01-22T15:36:18.945Z,1.50
2023-01-22T15:38:47.558Z,1.50
2023-01-22T15:41:19.498Z,1.50
2023-01-22T15:43:51.053Z,1.60
2023-01-22T15:46:21.307Z,1.60
2023-01-22T15:48:50.132Z,1.60
2023-01-22T15:51:18.816Z,1.60
2023-01-22T15:53:49.262Z,1.60
2023-01-22T15:56:17.629Z,1.60
2023-01-22T15:58:45.894Z,1.60
2023-01-22T16:01:14.373Z,1.60
2023-01-22T16:03:43.722Z,1.60
2023-01-22T16:06:13.779Z,1.70
2023-01-22T16:08:43.231Z,1.70
2023-01-22T16:11:12.301Z,1.70
2023-01-22T16:13:40.559Z,1.70
2023-01-22T16:16:16.081Z,1.70
2023-01-22T16:18:45.790Z,1.80
2023-01-22T16:21:14.703Z,1.80
2023-01-22T16:23:43.707Z,1.80
2023-01-22T16:26:15.036Z,1.80
2023-01-22T16:28:43.460Z,1.80
2023-01-22T16:31:13.875Z,1.90
2023-01-22T16:33:43.670Z,1.90
2023-01-22T16:36:13.629Z,1.90
2023-01-22T16:38:42.525Z,1.90
2023-01-22T16:41:25.063Z,1.90
2023-01-22T16:43:54.499Z,1.90
2023-01-22T16:46:24.272Z,1.90
2023-01-22T16:48:56.724Z,1.90
2023-01-22T16:51:26.909Z,1.90
2023-01-22T16:53:55.392Z,1.90
2023-01-22T16:56:23.493Z,1.90
2023-01-22T16:58:51.881Z,1.90
2023-01-22T17:01:20.145Z,1.90
2023-01-22T17:03:49.000Z,1.90
2023-01-22T17:06:24.859Z,1.90
2023-01-22T17:08:54.752Z,1.90
2023-01-22T17:11:23.194Z,2.00
2023-01-22T17:13:51.415Z,2.00
2023-01-22T17:16:20.147Z,1.90
2023-01-22T17:18:49.971Z,1.90
2023-01-22T17:21:19.637Z,2.00
2023-01-22T17:23:48.625Z,1.90
2023-01-22T17:26:18.355Z,1.90
2023-01-22T17:28:46.611Z,1.90
2023-01-22T17:31:16.304Z,1.90
2023-01-22T17:33:44.659Z,1.90
2023-01-22T17:36:14.060Z,1.90
2023-01-22T17:38:42.636Z,1.80
2023-01-22T17:41:14.384Z,1.70
2023-01-22T17:43:44.970Z,1.50
2023-01-22T17:46:14.176Z,1.50
2023-01-22T17:48:42.554Z,1.40
2023-01-22T17:51:12.017Z,1.40
2023-01-22T17:53:40.785Z,1.40
2023-01-22T17:56:10.077Z,1.50
2023-01-22T17:58:38.198Z,1.60
2023-01-22T18:01:08.984Z,1.50
2023-01-22T18:03:37.547Z,1.50
2023-01-22T18:06:06.008Z,1.40
2023-01-22T18:08:35.482Z,1.30
2023-01-22T18:11:05.901Z,1.30
2023-01-22T18:13:34.645Z,1.30
2023-01-22T18:16:03.340Z,1.30
2023-01-22T18:18:34.893Z,1.40
2023-01-22T18:21:03.050Z,1.40
2023-01-22T18:23:31.434Z,1.40
2023-01-22T18:26:03.776Z,1.40
2023-01-22T18:28:32.495Z,1.40
2023-01-22T18:31:04.447Z,1.40
2023-01-22T18:33:36.010Z,1.40
2023-01-22T18:36:12.264Z,1.40
2023-01-22T18:38:41.068Z,1.40
2023-01-22T18:41:10.426Z,1.40
2023-01-22T18:43:39.975Z,1.40
2023-01-22T18:46:09.259Z,1.50
2023-01-22T18:48:43.070Z,1.50
2023-01-22T18:51:17.930Z,1.50
2023-01-22T18:53:46.771Z,1.50
2023-01-22T18:56:17.297Z,1.50
2023-01-22T18:58:46.469Z,1.50
2023-01-22T19:01:15.285Z,1.50
2023-01-22T19:03:45.842Z,1.40
2023-01-22T19:06:16.001Z,1.40
2023-01-22T19:08:46.314Z,1.40
2023-01-22T19:11:15.066Z,1.50
2023-01-22T19:13:44.861Z,1.50
2023-01-22T19:16:14.946Z,1.50
2023-01-22T19:18:46.871Z,1.50
2023-01-22T19:21:15.972Z,1.50
2023-01-22T19:23:45.053Z,1.40
2023-01-22T19:26:14.656Z,1.40
2023-01-22T19:28:43.054Z,1.50
2023-01-22T19:31:18.244Z,1.50
2023-01-22T19:33:48.065Z,1.50
2023-01-22T19:36:16.747Z,1.40
2023-01-22T19:38:44.943Z,1.50
2023-01-22T19:41:13.428Z,1.50
2023-01-22T19:43:41.940Z,1.50
2023-01-22T19:46:16.935Z,1.50
2023-01-22T19:48:45.278Z,1.50
2023-01-22T19:51:16.496Z,1.50
2023-01-22T19:53:44.758Z,1.50
2023-01-22T19:56:16.783Z,1.50
2023-01-22T19:58:45.203Z,1.50
2023-01-22T20:01:13.598Z,1.50
2023-01-22T20:03:42.025Z,1.40
2023-01-22T20:06:13.329Z,1.40
2023-01-22T20:08:42.921Z,1.30
2023-01-22T20:11:12.749Z,1.40
2023-01-22T20:13:41.667Z,1.30
2023-01-22T20:16:19.278Z,1.30
2023-01-22T20:18:49.230Z,1.30
2023-01-22T20:21:17.968Z,1.30
2023-01-22T20:23:48.270Z,1.20
2023-01-22T20:26:17.184Z,1.20
2023-01-22T20:28:45.732Z,1.20
2023-01-22T20:31:15.310Z,1.10
2023-01-22T20:33:43.759Z,1.10
2023-01-22T20:36:15.075Z,1.10
2023-01-22T20:38:43.859Z,1.10
2023-01-22T20:41:13.999Z,1.10
2023-01-22T20:43:43.640Z,1.10
2023-01-22T20:46:12.547Z,1.10
2023-01-22T20:48:41.288Z,1.10
2023-01-22T20:51:13.117Z,1.10
2023-01-22T20:53:43.694Z,1.10
2023-01-22T20:56:14.250Z,1.10
2023-01-22T20:58:42.559Z,1.00
2023-01-22T21:01:11.948Z,1.00
2023-01-22T21:03:40.024Z,1.00
2023-01-22T21:06:13.567Z,1.00
2023-01-22T21:08:42.323Z,1.00
2023-01-22T21:11:11.375Z,0.90
2023-01-22T21:13:41.349Z,0.90
2023-01-22T21:16:10.233Z,0.80
2023-01-22T21:18:41.393Z,0.80
2023-01-22T21:21:09.480Z,0.80
2023-01-22T21:23:37.827Z,0.80
2023-01-22T21:26:06.407Z,0.80
2023-01-22T21:28:35.892Z,0.80
2023-01-22T21:31:08.906Z,0.80
2023-01-22T21:33:37.242Z,0.80
2023-01-22T21:36:06.066Z,0.80
2023-01-22T21:38:34.767Z,0.80
2023-01-22T21:41:06.731Z,0.80
2023-01-22T21:43:53.017Z,0.80
2023-01-22T21:46:22.790Z,0.80
2023-01-22T21:48:50.909Z,0.80
2023-01-22T21:51:19.193Z,0.80
2023-01-22T21:53:47.788Z,0.80
2023-01-22T21:56:21.467Z,0.70
2023-01-22T21:58:51.221Z,0.70
2023-01-22T22:01:22.819Z,0.70
2023-01-22T22:03:53.195Z,0.70
2023-01-22T22:06:21.565Z,0.70
2023-01-22T22:08:50.168Z,0.70
2023-01-22T22:11:18.991Z,0.70
2023-01-22T22:14:04.599Z,0.70
2023-01-22T22:16:34.230Z,0.70
2023-01-22T22:19:03.956Z,0.70
2023-01-22T22:21:32.027Z,0.70
2023-01-22T22:24:00.327Z,0.70
2023-01-22T22:26:28.402Z,0.70
2023-01-22T22:28:56.786Z,0.70
2023-01-22T22:31:25.253Z,0.70
2023-01-22T22:33:54.557Z,0.70
2023-01-22T22:36:25.253Z,0.70
2023-01-22T22:38:53.354Z,0.70
2023-01-22T22:41:22.189Z,0.70
2023-01-22T22:43:51.929Z,0.70
2023-01-22T22:46:21.976Z,0.70
2023-01-22T22:48:50.772Z,0.60
2023-01-22T22:51:20.016Z,0.60
2023-01-22T22:53:50.091Z,0.60
2023-01-22T22:56:18.162Z,0.60
2023-01-22T22:58:46.757Z,0.60
2023-01-22T23:01:15.627Z,0.70
2023-01-22T23:03:44.008Z,0.70
2023-01-22T23:06:14.561Z,0.70
2023-01-22T23:08:43.657Z,0.60
2023-01-22T23:11:14.205Z,0.60
2023-01-22T23:13:44.824Z,0.60
2023-01-22T23:16:18.918Z,0.60
2023-01-22T23:19:00.104Z,0.60
2023-01-22T23:21:28.883Z,0.60
2023-01-22T23:23:56.950Z,0.60
2023-01-22T23:26:28.151Z,0.50
2023-01-22T23:29:12.061Z,0.60
2023-01-22T23:31:40.554Z,0.60
2023-01-22T23:34:10.973Z,0.50
2023-01-22T23:36:39.875Z,0.50
2023-01-22T23:39:08.534Z,0.40
2023-01-22T23:41:38.211Z,0.40
2023-01-22T23:44:06.826Z,0.40
2023-01-22T23:46:36.421Z,0.30
2023-01-22T23:49:05.335Z,0.40
2023-01-22T23:51:34.065Z,0.40
2023-01-22T23:54:02.167Z,0.40
2023-01-22T23:56:32.108Z,0.40
2023-01-22T23:59:01.592Z,0.40
